createdAt,value
2022-10-21T00:01:59.678Z,98.04
2022-10-21T00:04:27.176Z,97.73
2022-10-21T00:06:54.708Z,97.30
2022-10-21T00:09:22.179Z,95.52
2022-10-21T00:11:49.676Z,94.77
2022-10-21T00:14:19.887Z,95.07
2022-10-21T00:16:47.404Z,93.97
2022-10-21T00:19:14.952Z,94.31
2022-10-21T00:21:42.443Z,95.08
2022-10-21T00:24:09.922Z,95.68
2022-10-21T00:26:38.512Z,96.15
2022-10-21T00:29:06.202Z,96.50
2022-10-21T00:31:35.019Z,95.13
2022-10-21T00:34:02.496Z,95.02
2022-10-21T00:36:31.774Z,95.65
2022-10-21T00:38:59.225Z,95.09
2022-10-21T00:41:26.679Z,95.43
2022-10-21T00:43:59.844Z,95.90
2022-10-21T00:46:33.773Z,96.17
2022-10-21T00:49:06.015Z,96.04
2022-10-21T00:51:33.811Z,96.43
2022-10-21T00:54:02.167Z,96.56
2022-10-21T00:56:32.263Z,96.60
2022-10-21T00:59:01.988Z,96.94
2022-10-21T01:01:29.510Z,96.88
2022-10-21T01:03:57.043Z,96.57
2022-10-21T01:06:26.921Z,97.08
2022-10-21T01:08:55.524Z,97.15
2022-10-21T01:11:24.389Z,96.99
2022-10-21T01:14:09.056Z,95.56
2022-10-21T01:16:47.248Z,94.87
2022-10-21T01:19:38.392Z,96.63
2022-10-21T01:22:12.678Z,96.74
2022-10-21T01:24:50.054Z,96.80
2022-10-21T01:27:22.886Z,96.25
2022-10-21T01:30:07.196Z,96.25
2022-10-21T01:32:56.203Z,94.54
2022-10-21T01:35:25.621Z,93.53
2022-10-21T01:37:58.729Z,94.36
2022-10-21T01:40:28.180Z,94.33
2022-10-21T01:42:58.166Z,93.96
2022-10-21T01:45:31.619Z,93.94
2022-10-21T01:48:03.817Z,94.53
2022-10-21T01:50:34.637Z,95.01
2022-10-21T01:53:09.943Z,95.46
2022-10-21T01:55:38.607Z,95.84
2022-10-21T01:58:08.114Z,95.98
2022-10-21T02:00:36.657Z,96.53
2022-10-21T02:03:08.595Z,96.76
2022-10-21T02:05:36.341Z,96.92
2022-10-21T02:08:04.004Z,97.07
2022-10-21T02:10:34.972Z,97.15
2022-10-21T02:13:04.726Z,97.37
2022-10-21T02:15:34.153Z,97.88
2022-10-21T02:18:05.236Z,97.10
2022-10-21T02:20:36.592Z,96.67
2022-10-21T02:23:05.079Z,97.16
2022-10-21T02:25:34.589Z,97.47
2022-10-21T02:28:02.200Z,97.27
2022-10-21T02:30:35.613Z,96.93
2022-10-21T02:33:08.026Z,97.05
2022-10-21T02:35:42.506Z,97.20
2022-10-21T02:38:15.404Z,97.15
2022-10-21T02:40:45.722Z,97.08
2022-10-21T02:43:15.279Z,97.17
2022-10-21T02:45:42.904Z,97.17
2022-10-21T02:48:10.372Z,97.37
2022-10-21T02:50:39.202Z,97.22
2022-10-21T02:53:07.162Z,97.10
2022-10-21T02:55:34.674Z,96.38
2022-10-21T02:58:02.139Z,96.55
2022-10-21T03:00:32.733Z,96.53
2022-10-21T03:03:00.661Z,96.30
2022-10-21T03:05:28.271Z,96.73
2022-10-21T03:07:57.135Z,96.03
2022-10-21T03:10:24.633Z,96.21
2022-10-21T03:12:52.169Z,96.25
2022-10-21T03:15:19.596Z,96.51
2022-10-21T03:17:47.613Z,96.51
2022-10-21T03:20:15.238Z,96.93
2022-10-21T03:22:43.960Z,96.29
2022-10-21T03:25:13.220Z,95.59
2022-10-21T03:27:40.958Z,96.12
2022-10-21T03:30:10.077Z,96.55
2022-10-21T03:32:37.892Z,96.50
2022-10-21T03:35:06.366Z,96.04
2022-10-21T03:37:33.883Z,96.28
2022-10-21T03:40:01.318Z,97.01
2022-10-21T03:42:30.161Z,97.56
2022-10-21T03:44:57.625Z,97.20
2022-10-21T03:47:25.309Z,97.57
2022-10-21T03:49:52.919Z,97.46
2022-10-21T03:52:20.422Z,97.65
2022-10-21T03:54:47.933Z,97.47
2022-10-21T03:57:16.214Z,97.56
2022-10-21T03:59:45.027Z,97.80
2022-10-21T04:02:12.540Z,97.98
2022-10-21T04:04:40.023Z,97.27
2022-10-21T04:07:07.544Z,97.88
2022-10-21T04:09:35.009Z,97.91
2022-10-21T04:12:02.492Z,98.08
2022-10-21T04:14:29.999Z,97.86
2022-10-21T04:17:06.816Z,97.85
2022-10-21T04:19:34.494Z,97.88
2022-10-21T04:22:01.961Z,97.76
2022-10-21T04:24:29.437Z,98.14
2022-10-21T04:26:56.950Z,98.22
2022-10-21T04:29:24.423Z,98.22
2022-10-21T04:31:52.026Z,97.63
2022-10-21T04:34:20.865Z,97.61
2022-10-21T04:36:48.380Z,98.15
2022-10-21T04:39:15.988Z,98.00
2022-10-21T04:41:44.462Z,97.90
2022-10-21T04:44:12.228Z,97.40
2022-10-21T04:46:39.704Z,97.71
2022-10-21T04:49:07.256Z,97.64
2022-10-21T04:51:36.089Z,97.41
2022-10-21T04:54:03.584Z,97.46
2022-10-21T04:56:31.361Z,97.25
2022-10-21T04:58:58.824Z,97.28
2022-10-21T05:01:26.390Z,97.02
2022-10-21T05:03:53.957Z,96.99
2022-10-21T05:06:21.460Z,96.91
2022-10-21T05:08:50.347Z,97.08
2022-10-21T05:11:17.820Z,97.10
2022-10-21T05:13:46.503Z,97.11
2022-10-21T05:16:13.998Z,97.05
2022-10-21T05:18:41.445Z,97.35
2022-10-21T05:21:09.112Z,97.06
2022-10-21T05:23:36.593Z,97.16
2022-10-21T05:26:05.663Z,97.37
2022-10-21T05:28:33.141Z,96.83
2022-10-21T05:31:00.649Z,96.82
2022-10-21T05:33:28.415Z,96.95
2022-10-21T05:35:57.511Z,97.27
2022-10-21T05:38:25.050Z,97.37
2022-10-21T05:40:53.173Z,96.89
2022-10-21T05:43:22.025Z,97.55
2022-10-21T05:45:49.504Z,97.46
2022-10-21T05:48:18.200Z,97.65
2022-10-21T05:50:46.112Z,97.59
2022-10-21T05:53:14.004Z,97.63
2022-10-21T05:55:41.480Z,97.33
2022-10-21T05:58:09.012Z,96.18
2022-10-21T06:00:37.884Z,95.47
2022-10-21T06:03:05.387Z,96.18
2022-10-21T06:05:32.894Z,96.17
2022-10-21T06:08:00.324Z,96.79
2022-10-21T06:10:29.170Z,96.92
2022-10-21T06:12:56.829Z,96.66
2022-10-21T06:15:24.359Z,96.90
2022-10-21T06:17:53.638Z,96.90
2022-10-21T06:20:21.122Z,97.10
2022-10-21T06:22:48.648Z,97.20
2022-10-21T06:27:44.768Z,97.25
2022-10-21T06:30:12.248Z,97.35
2022-10-21T06:32:39.731Z,96.94
2022-10-21T06:35:08.963Z,97.11
2022-10-21T06:37:36.812Z,97.10
2022-10-21T06:40:05.474Z,97.19
2022-10-21T06:42:33.023Z,97.30
2022-10-21T06:45:10.317Z,97.57
2022-10-21T06:47:38.163Z,97.46
2022-10-21T06:50:08.312Z,97.83
2022-10-21T06:52:35.867Z,97.50
2022-10-21T06:55:03.354Z,97.61
2022-10-21T06:57:30.843Z,97.53
2022-10-21T06:59:58.342Z,97.62
2022-10-21T07:02:25.907Z,97.21
2022-10-21T07:04:53.459Z,97.73
2022-10-21T07:07:22.280Z,97.28
2022-10-21T07:09:49.839Z,97.50
2022-10-21T07:12:17.456Z,97.56
2022-10-21T07:14:44.939Z,97.35
2022-10-21T07:17:12.426Z,97.78
2022-10-21T07:19:39.908Z,97.77
2022-10-21T07:22:07.389Z,97.73
2022-10-21T07:24:36.539Z,97.61
2022-10-21T07:27:04.113Z,97.77
2022-10-21T07:29:31.631Z,98.10
2022-10-21T07:31:59.188Z,98.46
2022-10-21T07:34:26.907Z,98.16
2022-10-21T07:36:54.759Z,98.69
2022-10-21T07:39:24.530Z,98.50
2022-10-21T07:41:55.241Z,98.18
2022-10-21T07:44:25.048Z,98.71
2022-10-21T07:46:53.087Z,98.86
2022-10-21T07:49:21.398Z,98.53
2022-10-21T07:51:50.114Z,98.62
2022-10-21T07:54:18.632Z,98.68
2022-10-21T07:56:47.575Z,98.59
2022-10-21T07:59:17.621Z,98.60
2022-10-21T08:01:47.321Z,98.82
2022-10-21T08:04:16.980Z,98.60
2022-10-21T08:06:45.083Z,98.25
2022-10-21T08:09:12.611Z,98.53
2022-10-21T08:11:40.232Z,98.69
2022-10-21T08:14:08.694Z,98.11
2022-10-21T08:16:38.115Z,97.86
2022-10-21T08:19:07.345Z,98.30
2022-10-21T08:21:35.291Z,97.99
2022-10-21T08:24:04.093Z,98.29
2022-10-21T08:26:31.616Z,98.25
2022-10-21T08:31:31.707Z,98.04
2022-10-21T08:34:00.945Z,98.61
2022-10-21T08:36:28.413Z,98.18
2022-10-21T08:38:56.292Z,98.21
2022-10-21T08:41:35.940Z,98.34
2022-10-21T08:44:06.601Z,97.85
2022-10-21T08:46:37.022Z,98.40
2022-10-21T08:49:10.447Z,98.59
2022-10-21T08:51:40.512Z,98.06
2022-10-21T08:54:13.524Z,98.25
2022-10-21T08:56:41.121Z,98.26
2022-10-21T08:59:11.543Z,98.33
2022-10-21T09:01:44.095Z,98.03
2022-10-21T09:04:17.011Z,98.21
2022-10-21T09:06:50.437Z,98.04
2022-10-21T09:09:21.914Z,97.99
2022-10-21T09:12:00.035Z,97.99
2022-10-21T09:14:50.470Z,98.65
2022-10-21T09:17:36.524Z,98.65
2022-10-21T09:20:14.445Z,99.27
2022-10-21T09:22:49.343Z,99.82
2022-10-21T09:25:22.535Z,99.40
2022-10-21T09:27:56.102Z,99.62
2022-10-21T09:30:24.668Z,99.28
2022-10-21T09:32:57.785Z,99.86
2022-10-21T09:35:31.930Z,99.85
2022-10-21T09:38:02.193Z,99.90
2022-10-21T09:40:31.822Z,100.00
2022-10-21T09:43:01.377Z,99.71
2022-10-21T09:45:33.259Z,99.70
2022-10-21T09:48:02.455Z,99.93
2022-10-21T09:53:08.653Z,100.00
2022-10-21T09:55:36.378Z,100.00
2022-10-21T09:58:05.173Z,100.00
2022-10-21T10:00:42.781Z,100.00
2022-10-21T10:03:10.705Z,100.00
2022-10-21T10:05:43.841Z,100.00
2022-10-21T10:08:22.429Z,100.00
2022-10-21T10:10:50.049Z,100.00
2022-10-21T10:13:19.604Z,100.00
2022-10-21T10:15:47.301Z,100.00
2022-10-21T10:18:21.759Z,100.00
2022-10-21T10:21:05.195Z,100.00
2022-10-21T10:23:43.983Z,100.00
2022-10-21T10:26:11.935Z,100.00
2022-10-21T10:31:11.988Z,100.00
2022-10-21T10:33:39.568Z,100.00
2022-10-21T10:36:09.755Z,100.00
2022-10-21T10:38:39.605Z,100.00
2022-10-21T10:41:08.751Z,100.00
2022-10-21T10:43:38.006Z,100.00
2022-10-21T10:46:09.595Z,100.00
2022-10-21T10:48:39.708Z,100.00
2022-10-21T10:51:25.092Z,100.00
2022-10-21T10:54:01.618Z,100.00
2022-10-21T10:56:30.553Z,100.00
2022-10-21T10:59:05.461Z,100.00
2022-10-21T11:01:36.695Z,100.00
2022-10-21T11:04:11.919Z,100.00
2022-10-21T11:06:43.572Z,100.00
2022-10-21T11:09:11.287Z,100.00
2022-10-21T11:11:41.658Z,100.00
2022-10-21T11:14:15.388Z,100.00
2022-10-21T11:17:00.481Z,100.00
2022-10-21T11:19:31.394Z,100.00
2022-10-21T11:22:09.601Z,100.00
2022-10-21T11:24:55.303Z,100.00
2022-10-21T11:27:29.399Z,100.00
2022-10-21T11:30:05.550Z,100.00
2022-10-21T11:32:42.576Z,100.00
2022-10-21T11:35:18.857Z,100.00
2022-10-21T11:37:54.552Z,100.00
2022-10-21T11:40:30.060Z,100.00
2022-10-21T11:42:58.254Z,100.00
2022-10-21T11:45:41.813Z,100.00
2022-10-21T11:48:18.151Z,100.00
2022-10-21T11:50:49.939Z,100.00
2022-10-21T11:53:31.879Z,99.83
2022-10-21T11:56:05.383Z,99.34
2022-10-21T11:58:41.729Z,99.83
2022-10-21T12:01:23.688Z,100.00
2022-10-21T12:04:08.544Z,99.77
2022-10-21T12:06:39.047Z,100.00
2022-10-21T12:09:12.919Z,100.00
2022-10-21T12:11:43.714Z,100.00
2022-10-21T12:14:30.166Z,99.88
2022-10-21T12:17:02.371Z,99.49
2022-10-21T12:19:29.975Z,99.45
2022-10-21T12:21:57.734Z,98.22
2022-10-21T12:24:41.578Z,97.04
2022-10-21T12:27:15.425Z,96.86
2022-10-21T12:29:51.357Z,97.28
2022-10-21T12:32:24.449Z,97.30
2022-10-21T12:34:52.021Z,96.92
2022-10-21T12:38:00.615Z,95.96
2022-10-21T12:40:41.799Z,95.79
2022-10-21T12:43:20.566Z,95.23
2022-10-21T12:45:49.113Z,95.81
2022-10-21T12:48:32.628Z,96.08
2022-10-21T12:51:01.997Z,96.32
2022-10-21T12:53:36.643Z,96.44
2022-10-21T12:56:07.168Z,96.87
2022-10-21T12:58:38.823Z,96.81
2022-10-21T13:01:07.479Z,96.82
2022-10-21T13:03:52.928Z,97.07
2022-10-21T13:06:52.156Z,97.01
2022-10-21T13:09:38.778Z,97.34
2022-10-21T13:12:28.052Z,97.72
2022-10-21T13:14:56.668Z,97.25
2022-10-21T13:17:33.096Z,97.28
2022-10-21T13:20:38.386Z,97.50
2022-10-21T13:23:32.290Z,97.47
2022-10-21T13:26:12.178Z,97.39
2022-10-21T13:28:41.180Z,97.12
2022-10-21T13:31:08.856Z,96.09
2022-10-21T13:33:38.092Z,95.55
2022-10-21T13:36:12.604Z,95.85
2022-10-21T13:38:48.800Z,95.96
2022-10-21T13:41:22.482Z,94.59
2022-10-21T13:43:54.528Z,94.88
2022-10-21T13:46:26.554Z,94.96
2022-10-21T13:48:54.133Z,95.80
2022-10-21T13:51:23.690Z,96.02
2022-10-21T13:53:54.896Z,96.14
2022-10-21T13:56:23.925Z,96.32
2022-10-21T13:58:53.064Z,96.24
2022-10-21T14:01:22.140Z,96.49
2022-10-21T14:03:50.123Z,96.46
2022-10-21T14:06:22.945Z,96.50
2022-10-21T14:08:51.132Z,96.82
2022-10-21T14:11:21.917Z,96.66
2022-10-21T14:13:50.594Z,96.52
2022-10-21T14:16:26.668Z,96.69
2022-10-21T14:18:54.585Z,96.79
2022-10-21T14:21:25.379Z,96.80
2022-10-21T14:23:53.453Z,96.78
2022-10-21T14:26:21.177Z,96.81
2022-10-21T14:28:50.412Z,96.83
2022-10-21T14:31:18.796Z,96.65
2022-10-21T14:33:49.547Z,96.54
2022-10-21T14:36:19.682Z,96.49
2022-10-21T14:38:54.478Z,96.49
2022-10-21T14:41:24.907Z,96.55
2022-10-21T14:43:52.885Z,96.43
2022-10-21T14:46:20.436Z,96.90
2022-10-21T14:48:52.944Z,96.85
2022-10-21T14:51:22.538Z,96.81
2022-10-21T14:53:55.828Z,96.91
2022-10-21T14:56:26.802Z,96.48
2022-10-21T14:58:56.607Z,96.70
2022-10-21T15:01:24.462Z,96.93
2022-10-21T15:03:54.872Z,96.77
2022-10-21T15:06:24.639Z,96.67
2022-10-21T15:09:05.866Z,96.78
2022-10-21T15:11:37.270Z,96.69
2022-10-21T15:14:20.556Z,96.49
2022-10-21T15:16:50.667Z,96.58
2022-10-21T15:19:21.618Z,96.57
2022-10-21T15:21:52.034Z,96.64
2022-10-21T15:24:22.482Z,96.55
2022-10-21T15:26:52.173Z,96.58
2022-10-21T15:29:25.936Z,96.60
2022-10-21T15:31:53.930Z,96.60
2022-10-21T15:34:22.790Z,96.49
2022-10-21T15:36:50.650Z,96.48
2022-10-21T15:39:18.332Z,96.62
2022-10-21T15:41:46.340Z,96.46
2022-10-21T15:44:19.858Z,96.89
2022-10-21T15:46:49.727Z,97.01
2022-10-21T15:49:19.972Z,97.05
2022-10-21T15:51:49.577Z,97.06
2022-10-21T15:54:18.204Z,97.19
2022-10-21T15:56:47.315Z,97.04
2022-10-21T15:59:18.853Z,96.85
2022-10-21T16:01:46.761Z,96.56
2022-10-21T16:04:14.236Z,96.84
2022-10-21T16:06:45.818Z,97.04
2022-10-21T16:09:20.641Z,97.03
2022-10-21T16:11:58.850Z,97.03
2022-10-21T16:14:29.539Z,97.70
2022-10-21T16:16:58.883Z,97.40
2022-10-21T16:19:26.664Z,97.02
2022-10-21T16:21:54.612Z,97.40
2022-10-21T16:24:23.845Z,97.71
2022-10-21T16:26:51.441Z,97.64
2022-10-21T16:29:20.585Z,97.62
2022-10-21T16:31:48.553Z,97.67
2022-10-21T16:34:16.391Z,97.72
2022-10-21T16:36:44.057Z,98.25
2022-10-21T16:39:15.175Z,98.02
2022-10-21T16:41:44.128Z,98.00
2022-10-21T16:44:11.743Z,97.83
2022-10-21T16:46:40.933Z,97.92
2022-10-21T16:49:13.765Z,98.03
2022-10-21T16:51:41.913Z,97.94
2022-10-21T16:54:09.607Z,98.27
2022-10-21T16:56:37.125Z,97.85
2022-10-21T16:59:06.119Z,98.43
2022-10-21T17:01:33.811Z,98.45
2022-10-21T17:04:01.582Z,98.21
2022-10-21T17:06:29.167Z,98.32
2022-10-21T17:08:57.502Z,97.67
2022-10-21T17:11:27.047Z,98.08
2022-10-21T17:13:54.715Z,97.81
2022-10-21T17:16:23.715Z,97.79
2022-10-21T17:18:51.413Z,97.79
2022-10-21T17:21:22.074Z,97.72
2022-10-21T17:23:49.963Z,98.07
2022-10-21T17:26:18.739Z,98.34
2022-10-21T17:28:46.388Z,98.41
2022-10-21T17:31:16.196Z,98.50
2022-10-21T17:33:45.905Z,98.16
2022-10-21T17:36:15.030Z,98.42
2022-10-21T17:38:42.947Z,98.85
2022-10-21T17:41:10.922Z,99.19
2022-10-21T17:43:38.730Z,98.93
2022-10-21T17:46:06.699Z,98.91
2022-10-21T17:48:34.605Z,98.67
2022-10-21T17:51:03.588Z,98.51
2022-10-21T17:53:31.475Z,98.76
2022-10-21T17:56:00.177Z,98.49
2022-10-21T17:58:28.462Z,98.99
2022-10-21T18:00:57.419Z,99.01
2022-10-21T18:03:25.914Z,98.67
2022-10-21T18:05:53.758Z,98.84
2022-10-21T18:08:23.345Z,99.00
2022-10-21T18:10:55.508Z,99.18
2022-10-21T18:13:23.464Z,98.73
2022-10-21T18:15:51.573Z,98.82
2022-10-21T18:18:19.341Z,98.94
2022-10-21T18:20:47.136Z,99.18
2022-10-21T18:23:15.893Z,99.12
2022-10-21T18:25:44.931Z,98.87
2022-10-21T18:28:12.517Z,99.41
2022-10-21T18:30:42.457Z,99.25
2022-10-21T18:33:10.460Z,99.25
2022-10-21T18:35:38.370Z,98.92
2022-10-21T18:38:05.945Z,99.29
2022-10-21T18:40:33.495Z,100.00
2022-10-21T18:43:02.475Z,99.87
2022-10-21T18:45:30.148Z,99.64
2022-10-21T18:47:57.773Z,99.46
2022-10-21T18:50:25.448Z,99.38
2022-10-21T18:52:53.018Z,99.31
2022-10-21T18:55:20.679Z,98.97
2022-10-21T18:57:48.478Z,99.33
2022-10-21T19:00:17.559Z,99.08
2022-10-21T19:02:45.162Z,98.42
2022-10-21T19:05:12.736Z,98.25
2022-10-21T19:07:40.659Z,98.52
2022-10-21T19:10:08.693Z,97.93
2022-10-21T19:12:36.283Z,97.25
2022-10-21T19:15:08.071Z,97.74
2022-10-21T19:17:37.833Z,97.67
2022-10-21T19:20:07.002Z,97.76
2022-10-21T19:22:34.575Z,97.61
2022-10-21T19:25:02.192Z,97.63
2022-10-21T19:27:29.711Z,97.53
2022-10-21T19:29:57.313Z,96.97
2022-10-21T19:32:24.885Z,97.55
2022-10-21T19:34:53.861Z,97.95
2022-10-21T19:37:21.548Z,98.43
2022-10-21T19:39:49.170Z,98.49
2022-10-21T19:42:16.906Z,98.83
2022-10-21T19:44:44.503Z,99.01
2022-10-21T19:47:12.111Z,98.77
2022-10-21T19:49:39.894Z,98.53
2022-10-21T19:52:08.760Z,98.41
2022-10-21T19:54:36.492Z,97.75
2022-10-21T19:57:04.308Z,97.71
2022-10-21T19:59:31.931Z,96.32
2022-10-21T20:01:59.541Z,96.85
2022-10-21T20:04:27.261Z,97.01
2022-10-21T20:06:54.948Z,95.59
2022-10-21T20:09:23.894Z,96.31
2022-10-21T20:11:51.529Z,96.21
2022-10-21T20:14:19.297Z,96.94
2022-10-21T20:16:49.331Z,96.72
2022-10-21T20:19:16.964Z,97.20
2022-10-21T20:21:44.833Z,97.33
2022-10-21T20:24:15.149Z,97.29
2022-10-21T20:26:45.523Z,97.14
2022-10-21T20:29:15.392Z,96.91
2022-10-21T20:31:43.050Z,97.04
2022-10-21T20:34:12.408Z,97.89
2022-10-21T20:36:40.060Z,97.57
2022-10-21T20:39:07.673Z,98.21
2022-10-21T20:41:37.315Z,98.13
2022-10-21T20:44:08.190Z,97.89
2022-10-21T20:46:36.205Z,98.19
2022-10-21T20:49:05.044Z,98.26
2022-10-21T20:51:32.685Z,98.27
2022-10-21T20:54:02.267Z,98.78
2022-10-21T20:56:31.237Z,98.68
2022-10-21T20:58:59.423Z,98.64
2022-10-21T21:01:30.894Z,98.44
2022-10-21T21:03:59.768Z,98.67
2022-10-21T21:06:28.049Z,98.99
2022-10-21T21:09:29.050Z,98.60
2022-10-21T21:11:43.469Z,98.39
2022-10-21T21:14:11.202Z,98.32
2022-10-21T21:16:40.163Z,98.80
2022-10-21T21:19:08.694Z,98.27
2022-10-21T21:21:37.510Z,98.43
2022-10-21T21:24:05.517Z,98.77
2022-10-21T21:26:34.535Z,98.55
2022-10-21T21:29:06.021Z,98.77
2022-10-21T21:31:34.297Z,98.09
2022-10-21T21:34:03.255Z,98.48
2022-10-21T21:36:30.819Z,98.31
2022-10-21T21:38:58.346Z,98.49
2022-10-21T21:41:26.718Z,98.67
2022-10-21T21:43:56.548Z,98.83
2022-10-21T21:46:24.556Z,98.93
2022-10-21T21:48:55.311Z,99.21
2022-10-21T21:51:25.784Z,98.82
2022-10-21T21:53:53.400Z,99.22
2022-10-21T21:56:21.296Z,98.39
2022-10-21T21:58:49.099Z,98.67
2022-10-21T22:01:18.529Z,98.95
2022-10-21T22:03:46.965Z,98.99
2022-10-21T22:06:14.821Z,98.88
2022-10-21T22:08:43.747Z,98.77
2022-10-21T22:11:13.420Z,99.04
2022-10-21T22:13:42.019Z,98.78
2022-10-21T22:16:12.078Z,99.06
2022-10-21T22:18:39.816Z,99.32
2022-10-21T22:21:09.660Z,99.30
2022-10-21T22:23:38.199Z,98.94
2022-10-21T22:26:07.616Z,98.75
2022-10-21T22:28:35.442Z,99.10
2022-10-21T22:31:05.159Z,98.29
2022-10-21T22:33:32.942Z,98.81
2022-10-21T22:36:00.844Z,98.32
2022-10-21T22:38:29.346Z,98.55
2022-10-21T22:40:58.662Z,98.66
2022-10-21T22:43:28.274Z,98.74
2022-10-21T22:46:05.114Z,98.80
2022-10-21T22:48:43.716Z,98.41
2022-10-21T22:51:11.313Z,99.13
2022-10-21T22:53:38.869Z,98.71
2022-10-21T22:56:06.574Z,98.92
2022-10-21T22:58:35.462Z,98.71
2022-10-21T23:01:06.921Z,98.15
2022-10-21T23:03:34.521Z,98.38
2022-10-21T23:06:02.043Z,98.22
2022-10-21T23:08:29.939Z,97.76
2022-10-21T23:10:58.697Z,98.45
2022-10-21T23:13:26.293Z,97.92
2022-10-21T23:15:55.241Z,97.85
2022-10-21T23:18:22.916Z,98.02
2022-10-21T23:20:50.566Z,97.80
2022-10-21T23:23:18.116Z,97.76
2022-10-21T23:25:45.677Z,97.92
2022-10-21T23:28:13.282Z,97.68
2022-10-21T23:30:40.999Z,97.34
2022-10-21T23:33:10.071Z,98.08
2022-10-21T23:35:37.759Z,97.52
2022-10-21T23:38:05.318Z,97.46
2022-10-21T23:40:33.059Z,97.78
2022-10-21T23:43:00.690Z,97.25
2022-10-21T23:45:28.388Z,97.72
2022-10-21T23:47:56.022Z,97.79
2022-10-21T23:50:24.987Z,97.80
2022-10-21T23:52:52.501Z,97.39
2022-10-21T23:55:20.067Z,97.67
2022-10-21T23:57:47.637Z,97.90
